createdAt,value
2018-09-05T00:02:43.269Z,17.47
2018-09-05T00:05:45.487Z,16.80
2018-09-05T00:08:47.656Z,16.57
2018-09-05T00:11:49.853Z,16.37
2018-09-05T00:14:52.298Z,17.77
2018-09-05T00:17:54.462Z,20.17
2018-09-05T00:20:56.680Z,18.10
2018-09-05T00:23:58.917Z,16.03
2018-09-05T00:27:01.110Z,19.77
2018-09-05T00:30:03.391Z,19.27
2018-09-05T00:33:05.409Z,18.63
2018-09-05T00:36:07.963Z,19.83
2018-09-05T00:39:10.302Z,16.20
2018-09-05T00:42:12.560Z,16.97
2018-09-05T00:45:14.801Z,16.13
2018-09-05T00:48:16.968Z,17.57
2018-09-05T00:51:19.262Z,16.27
2018-09-05T00:54:21.441Z,16.93
2018-09-05T00:57:23.889Z,18.97
2018-09-05T01:00:26.063Z,21.03
2018-09-05T01:03:28.431Z,17.80
2018-09-05T01:06:30.673Z,18.60
2018-09-05T01:09:32.852Z,18.03
2018-09-05T01:12:35.059Z,17.63
2018-09-05T01:15:37.365Z,20.60
2018-09-05T01:18:39.643Z,24.97
2018-09-05T01:21:41.981Z,21.03
2018-09-05T01:24:44.342Z,17.07
2018-09-05T01:27:46.956Z,18.63
2018-09-05T01:30:49.238Z,16.40
2018-09-05T01:33:51.567Z,21.07
2018-09-05T01:36:53.795Z,24.03
2018-09-05T01:39:56.196Z,21.37
2018-09-05T01:42:58.447Z,28.70
2018-09-05T01:46:00.706Z,23.17
2018-09-05T01:49:02.989Z,21.90
2018-09-05T01:52:05.323Z,18.60
2018-09-05T01:55:07.592Z,20.77
2018-09-05T01:58:09.780Z,19.50
2018-09-05T02:01:12.013Z,23.97
2018-09-05T02:04:14.160Z,22.13
2018-09-05T02:07:16.376Z,18.87
2018-09-05T02:10:18.576Z,20.23
2018-09-05T02:13:20.837Z,19.00
2018-09-05T02:16:22.986Z,19.97
2018-09-05T02:19:25.258Z,18.60
2018-09-05T02:22:27.436Z,20.60
2018-09-05T02:25:29.706Z,22.33
2018-09-05T02:28:31.861Z,20.67
2018-09-05T02:31:34.064Z,17.87
2018-09-05T02:34:36.349Z,19.13
2018-09-05T02:37:38.629Z,19.40
2018-09-05T02:40:40.914Z,21.27
2018-09-05T02:43:48.857Z,20.03
2018-09-05T02:46:51.676Z,18.70
2018-09-05T02:49:53.954Z,19.10
2018-09-05T02:52:56.229Z,20.37
2018-09-05T02:56:01.784Z,21.60
2018-09-05T02:59:04.080Z,21.83
2018-09-05T03:02:06.286Z,21.57
2018-09-05T03:05:08.502Z,23.50
2018-09-05T03:08:10.706Z,28.50
2018-09-05T03:11:12.883Z,24.43
2018-09-05T03:14:15.073Z,21.30
2018-09-05T03:17:17.501Z,27.00
2018-09-05T03:20:19.686Z,22.37
2018-09-05T03:23:27.600Z,21.33
2018-09-05T03:26:29.816Z,19.47
2018-09-05T03:29:33.081Z,20.93
2018-09-05T03:32:35.574Z,23.70
2018-09-05T03:35:37.593Z,24.03
2018-09-05T03:38:39.730Z,24.13
2018-09-05T03:41:42.053Z,18.80
2018-09-05T03:44:44.322Z,23.47
2018-09-05T03:47:46.499Z,22.67
2018-09-05T03:50:53.222Z,24.93
2018-09-05T03:53:55.631Z,23.17
2018-09-05T03:56:58.156Z,21.17
2018-09-05T04:00:00.297Z,21.60
2018-09-05T04:03:03.522Z,20.83
2018-09-05T04:06:05.654Z,23.80
2018-09-05T04:09:07.844Z,25.97
2018-09-05T04:12:10.330Z,27.93
2018-09-05T04:15:12.677Z,23.70
2018-09-05T04:18:14.963Z,26.80
2018-09-05T04:21:17.109Z,26.23
2018-09-05T04:24:19.308Z,23.67
2018-09-05T04:27:21.569Z,22.60
2018-09-05T04:30:23.880Z,22.90
2018-09-05T04:33:26.049Z,24.80
2018-09-05T04:36:28.289Z,24.77
2018-09-05T04:39:30.560Z,27.90
2018-09-05T04:42:33.049Z,24.43
2018-09-05T04:45:35.271Z,25.60
2018-09-05T04:48:37.609Z,25.90
2018-09-05T04:51:39.838Z,25.50
2018-09-05T04:54:42.025Z,24.17
2018-09-05T04:57:44.306Z,24.50
2018-09-05T05:00:46.546Z,23.60
2018-09-05T05:03:48.742Z,24.23
2018-09-05T05:06:51.010Z,25.83
2018-09-05T05:09:53.185Z,22.97
2018-09-05T05:12:55.448Z,25.33
2018-09-05T05:15:57.661Z,22.60
2018-09-05T05:18:59.936Z,25.13
2018-09-05T05:22:02.121Z,23.97
2018-09-05T05:25:04.362Z,24.73
2018-09-05T05:28:06.779Z,26.30
2018-09-05T05:31:09.240Z,22.90
2018-09-05T05:34:11.405Z,23.80
2018-09-05T05:37:13.648Z,25.63
2018-09-05T05:40:15.860Z,18.17
2018-09-05T05:43:18.088Z,23.97
2018-09-05T05:46:20.417Z,21.93
2018-09-05T05:49:22.642Z,21.53
2018-09-05T05:52:24.744Z,17.83
2018-09-05T05:55:26.959Z,18.30
2018-09-05T05:58:29.299Z,19.53
2018-09-05T06:01:31.489Z,16.03
2018-09-05T06:04:33.649Z,18.63
2018-09-05T06:07:35.788Z,17.20
2018-09-05T06:10:38.141Z,22.40
2018-09-05T06:13:40.448Z,18.77
2018-09-05T06:16:42.868Z,20.63
2018-09-05T06:19:45.204Z,26.30
2018-09-05T06:22:48.792Z,20.30
2018-09-05T06:25:50.977Z,26.10
2018-09-05T06:28:53.101Z,24.33
2018-09-05T06:31:55.267Z,21.23
2018-09-05T06:34:57.413Z,29.27
2018-09-05T06:37:59.635Z,28.47
2018-09-05T06:41:01.873Z,20.73
2018-09-05T06:44:04.095Z,28.93
2018-09-05T06:47:06.375Z,18.77
2018-09-05T06:50:08.563Z,23.10
2018-09-05T06:53:10.821Z,21.07
2018-09-05T06:56:13.000Z,21.40
2018-09-05T06:59:15.386Z,22.10
2018-09-05T07:02:17.642Z,21.30
2018-09-05T07:05:19.935Z,20.27
2018-09-05T07:08:22.168Z,18.37
2018-09-05T07:11:24.301Z,21.10
2018-09-05T07:14:26.548Z,19.70
2018-09-05T07:17:28.714Z,19.97
2018-09-05T07:20:30.893Z,19.57
2018-09-05T07:23:33.213Z,22.57
2018-09-05T07:26:35.906Z,19.43
2018-09-05T07:29:38.077Z,24.07
2018-09-05T07:32:40.315Z,19.17
2018-09-05T07:35:42.593Z,20.13
2018-09-05T07:38:44.673Z,18.20
2018-09-05T07:41:46.858Z,19.13
2018-09-05T07:44:50.067Z,18.17
2018-09-05T07:47:52.470Z,17.90
2018-09-05T07:50:54.794Z,18.53
2018-09-05T07:53:56.940Z,20.67
2018-09-05T07:56:59.124Z,20.93
2018-09-05T08:00:01.340Z,18.97
2018-09-05T08:03:03.647Z,22.60
2018-09-05T08:06:05.793Z,22.60
2018-09-05T08:09:09.812Z,18.60
2018-09-05T08:12:12.018Z,22.27
2018-09-05T08:15:14.210Z,21.27
2018-09-05T08:18:16.366Z,21.07
2018-09-05T08:21:18.661Z,20.97
2018-09-05T08:24:20.942Z,23.00
2018-09-05T08:27:23.531Z,21.27
2018-09-05T08:30:25.661Z,23.13
2018-09-05T08:33:27.888Z,24.40
2018-09-05T08:36:30.333Z,22.00
2018-09-05T08:39:32.295Z,21.30
2018-09-05T08:42:35.453Z,25.33
2018-09-05T08:45:37.804Z,20.83
2018-09-05T08:48:39.903Z,22.97
2018-09-05T08:51:41.985Z,22.37
2018-09-05T08:54:44.245Z,21.63
2018-09-05T08:57:46.432Z,23.23
2018-09-05T09:00:48.606Z,19.50
2018-09-05T09:03:50.768Z,22.23
2018-09-05T09:06:52.908Z,23.60
2018-09-05T09:09:55.422Z,20.27
2018-09-05T09:12:57.758Z,20.97
2018-09-05T09:15:59.998Z,21.77
2018-09-05T09:19:02.188Z,20.47
2018-09-05T09:22:04.526Z,20.07
2018-09-05T09:25:06.841Z,18.93
2018-09-05T09:28:09.077Z,19.10
2018-09-05T09:31:11.264Z,20.57
2018-09-05T09:34:13.494Z,17.70
2018-09-05T09:37:15.736Z,16.40
2018-09-05T09:40:17.928Z,17.47
2018-09-05T09:43:20.217Z,19.87
2018-09-05T09:46:22.391Z,15.60
2018-09-05T09:49:24.734Z,16.90
2018-09-05T09:52:26.888Z,15.07
2018-09-05T09:55:29.104Z,18.93
2018-09-05T09:58:31.349Z,15.50
2018-09-05T10:01:39.249Z,19.07
2018-09-05T10:04:47.225Z,19.87
2018-09-05T10:07:55.103Z,15.97
2018-09-05T10:11:06.653Z,18.17
2018-09-05T10:14:11.129Z,17.17
2018-09-05T10:17:18.938Z,16.00
2018-09-05T10:20:21.225Z,16.90
2018-09-05T10:23:23.501Z,16.47
2018-09-05T10:26:25.636Z,20.03
2018-09-05T10:29:27.892Z,17.60
2018-09-05T10:32:30.512Z,13.27
2018-09-05T10:35:33.078Z,15.53
2018-09-05T10:38:35.443Z,12.80
2018-09-05T10:41:37.690Z,15.07
2018-09-05T10:44:40.026Z,15.70
2018-09-05T10:47:42.259Z,13.17
2018-09-05T10:50:44.479Z,13.10
2018-09-05T10:53:46.711Z,16.93
2018-09-05T10:56:48.927Z,13.00
2018-09-05T10:59:51.116Z,16.53
2018-09-05T11:02:53.686Z,13.63
2018-09-05T11:05:56.889Z,11.90
2018-09-05T11:08:59.202Z,13.43
2018-09-05T11:12:01.435Z,13.03
2018-09-05T11:15:03.819Z,13.23
2018-09-05T11:18:06.084Z,13.33
2018-09-05T11:21:08.335Z,13.63
2018-09-05T11:24:10.683Z,13.37
2018-09-05T11:27:12.930Z,16.43
2018-09-05T11:30:15.156Z,13.70
2018-09-05T11:33:17.525Z,13.47
2018-09-05T11:36:19.773Z,15.10
2018-09-05T11:39:22.001Z,15.27
2018-09-05T11:42:24.233Z,12.20
2018-09-05T11:45:26.533Z,14.40
2018-09-05T11:48:28.785Z,14.00
2018-09-05T11:51:31.196Z,14.03
2018-09-05T11:54:33.438Z,10.80
2018-09-05T11:57:35.713Z,13.97
2018-09-05T12:00:37.971Z,12.40
2018-09-05T12:03:40.228Z,10.93
2018-09-05T12:06:42.489Z,12.20
2018-09-05T12:09:44.648Z,11.70
2018-09-05T12:12:46.882Z,14.53
2018-09-05T12:15:49.388Z,13.20
2018-09-05T12:18:51.616Z,14.87
2018-09-05T12:21:53.965Z,12.50
2018-09-05T12:24:56.257Z,12.60
2018-09-05T12:27:59.453Z,12.53
2018-09-05T12:31:01.727Z,12.23
2018-09-05T12:34:04.070Z,13.67
2018-09-05T12:37:06.337Z,13.60
2018-09-05T12:40:08.949Z,11.90
2018-09-05T12:43:11.225Z,12.67
2018-09-05T12:46:13.439Z,12.53
2018-09-05T12:49:15.697Z,10.83
2018-09-05T12:52:18.032Z,13.63
2018-09-05T12:55:20.562Z,10.00
2018-09-05T12:58:22.828Z,12.87
2018-09-05T13:01:25.072Z,12.30
2018-09-05T13:04:27.405Z,12.27
2018-09-05T13:07:29.605Z,12.83
2018-09-05T13:10:32.089Z,13.27
2018-09-05T13:13:34.452Z,11.70
2018-09-05T13:16:36.828Z,11.40
2018-09-05T13:19:39.080Z,12.30
2018-09-05T13:22:41.256Z,10.93
2018-09-05T13:25:43.570Z,11.07
2018-09-05T13:28:45.921Z,11.20
2018-09-05T13:31:48.141Z,11.67
2018-09-05T13:34:50.360Z,11.40
2018-09-05T13:37:52.650Z,14.33
2018-09-05T13:40:54.984Z,12.20
2018-09-05T13:43:57.218Z,11.07
2018-09-05T13:46:59.465Z,10.93
2018-09-05T13:50:02.119Z,10.80
2018-09-05T13:53:04.591Z,14.73
2018-09-05T13:56:06.932Z,11.13
2018-09-05T13:59:09.128Z,10.60
2018-09-05T14:02:11.282Z,11.87
2018-09-05T14:05:14.049Z,10.47
2018-09-05T14:08:16.216Z,9.90
2018-09-05T14:11:18.400Z,10.50
2018-09-05T14:14:20.598Z,10.60
2018-09-05T14:17:22.896Z,9.53
2018-09-05T14:20:25.255Z,9.40
2018-09-05T14:23:27.534Z,10.57
2018-09-05T14:26:29.881Z,11.13
2018-09-05T14:29:32.064Z,10.10
2018-09-05T14:32:34.228Z,9.10
2018-09-05T14:35:36.428Z,12.53
2018-09-05T14:38:38.842Z,11.63
2018-09-05T14:41:41.294Z,13.43
2018-09-05T14:44:43.637Z,9.47
2018-09-05T14:47:45.922Z,9.50
2018-09-05T14:50:48.216Z,10.40
2018-09-05T14:53:50.496Z,9.63
2018-09-05T14:56:52.689Z,8.93
2018-09-05T14:59:54.946Z,9.57
2018-09-05T15:02:57.209Z,10.90
2018-09-05T15:05:59.477Z,8.63
2018-09-05T15:09:01.801Z,8.97
2018-09-05T15:12:04.093Z,8.90
2018-09-05T15:15:06.500Z,10.07
2018-09-05T15:18:08.649Z,14.50
2018-09-05T15:21:10.927Z,9.83
2018-09-05T15:24:13.262Z,10.63
2018-09-05T15:27:15.761Z,9.83
2018-09-05T15:30:18.093Z,9.07
2018-09-05T15:33:20.312Z,11.07
2018-09-05T15:36:22.618Z,8.73
2018-09-05T15:39:24.996Z,14.30
2018-09-05T15:42:27.452Z,9.83
2018-09-05T15:45:29.784Z,10.50
2018-09-05T15:48:31.984Z,9.80
2018-09-05T15:51:35.146Z,9.53
2018-09-05T15:54:37.402Z,9.27
2018-09-05T15:57:39.645Z,22.83
2018-09-05T16:00:42.924Z,10.40
2018-09-05T16:03:45.254Z,12.07
2018-09-05T16:06:47.479Z,12.77
2018-09-05T16:09:49.750Z,61.70
2018-09-05T16:12:52.067Z,10.17
2018-09-05T16:15:54.290Z,14.90
2018-09-05T16:18:56.629Z,15.10
2018-09-05T16:21:58.971Z,21.13
2018-09-05T16:25:02.212Z,10.40
2018-09-05T16:28:04.669Z,10.50
2018-09-05T16:31:06.980Z,13.03
2018-09-05T16:34:09.548Z,10.27
2018-09-05T16:37:11.808Z,10.70
2018-09-05T16:40:14.088Z,11.13
2018-09-05T16:43:16.369Z,9.57
2018-09-05T16:46:18.762Z,9.10
2018-09-05T16:49:21.017Z,9.67
2018-09-05T16:52:28.757Z,9.93
2018-09-05T16:55:31.127Z,10.37
2018-09-05T16:58:33.409Z,13.90
2018-09-05T17:01:35.585Z,15.80
2018-09-05T17:04:37.880Z,10.63
2018-09-05T17:07:40.277Z,11.33
2018-09-05T17:10:42.496Z,13.77
2018-09-05T17:13:44.656Z,18.37
2018-09-05T17:16:46.874Z,20.40
2018-09-05T17:19:49.167Z,17.77
2018-09-05T17:22:51.417Z,11.63
2018-09-05T17:25:53.751Z,9.63
2018-09-05T17:34:23.429Z,11.60
2018-09-05T17:37:25.898Z,12.10
2018-09-05T17:40:28.208Z,11.33
2018-09-05T17:43:30.495Z,10.53
2018-09-05T17:46:32.660Z,11.33
2018-09-05T17:49:35.039Z,11.47
2018-09-05T17:52:37.279Z,9.97
2018-09-05T17:55:39.593Z,10.33
2018-09-05T17:58:41.914Z,11.33
2018-09-05T18:01:44.265Z,9.63
2018-09-05T18:04:46.433Z,13.87
2018-09-05T18:07:48.725Z,13.87
2018-09-05T18:10:51.016Z,10.33
2018-09-05T18:13:53.254Z,13.10
2018-09-05T18:16:55.546Z,12.73
2018-09-05T18:19:57.820Z,9.83
2018-09-05T18:23:00.104Z,10.27
2018-09-05T18:26:03.468Z,9.90
2018-09-05T18:29:05.684Z,10.67
2018-09-05T18:33:32.565Z,15.20
2018-09-05T18:36:34.877Z,11.80
2018-09-05T18:39:37.293Z,11.00
2018-09-05T18:42:39.583Z,13.90
2018-09-05T18:45:41.732Z,13.23
2018-09-05T18:48:45.195Z,12.47
2018-09-05T18:51:47.760Z,9.90
2018-09-05T18:54:49.972Z,13.37
2018-09-05T18:57:52.171Z,10.47
2018-09-05T19:00:54.368Z,14.80
2018-09-05T19:03:56.551Z,11.97
2018-09-05T19:06:58.885Z,10.67
2018-09-05T19:10:01.090Z,10.30
2018-09-05T19:13:03.312Z,12.90
2018-09-05T19:16:05.568Z,12.07
2018-09-05T19:19:07.929Z,12.60
2018-09-05T19:22:10.289Z,10.77
2018-09-05T19:25:12.685Z,13.53
2018-09-05T19:28:14.962Z,14.50
2018-09-05T19:31:17.309Z,13.30
2018-09-05T19:34:19.685Z,14.67
2018-09-05T19:37:22.886Z,11.97
2018-09-05T19:40:25.121Z,12.13
2018-09-05T19:43:27.380Z,11.83
2018-09-05T19:46:29.676Z,17.90
2018-09-05T19:49:31.894Z,16.27
2018-09-05T19:52:34.449Z,14.57
2018-09-05T19:55:36.713Z,12.97
2018-09-05T19:58:39.152Z,10.37
2018-09-05T20:01:41.551Z,12.97
2018-09-05T20:04:43.766Z,12.67
2018-09-05T20:07:46.025Z,15.00
2018-09-05T20:10:48.218Z,14.93
2018-09-05T20:13:50.404Z,13.87
2018-09-05T20:16:52.608Z,15.63
2018-09-05T20:19:54.968Z,13.03
2018-09-05T20:22:57.229Z,11.03
2018-09-05T20:25:59.458Z,12.17
2018-09-05T20:29:01.754Z,13.37
2018-09-05T20:32:04.050Z,11.47
2018-09-05T20:35:06.272Z,10.47
2018-09-05T20:38:08.558Z,10.67
2018-09-05T20:41:10.782Z,10.53
2018-09-05T20:44:12.973Z,12.40
2018-09-05T20:47:15.273Z,12.10
2018-09-05T20:50:17.503Z,13.67
2018-09-05T20:53:19.782Z,13.97
2018-09-05T20:56:22.074Z,11.73
2018-09-05T20:59:24.380Z,12.73
2018-09-05T21:02:26.617Z,10.47
2018-09-05T21:05:28.877Z,12.17
2018-09-05T21:08:31.136Z,11.60
2018-09-05T21:11:33.323Z,14.47
2018-09-05T21:14:35.584Z,12.90
2018-09-05T21:17:37.899Z,13.23
2018-09-05T21:20:40.152Z,14.03
2018-09-05T21:23:42.429Z,12.17
2018-09-05T21:26:44.729Z,12.23
2018-09-05T21:29:46.928Z,12.20
2018-09-05T21:36:27.940Z,11.47
2018-09-05T21:39:30.304Z,10.70
2018-09-05T21:42:32.629Z,11.80
2018-09-05T21:45:35.114Z,11.73
2018-09-05T21:48:37.460Z,13.37
2018-09-05T21:51:39.785Z,10.77
2018-09-05T21:54:42.072Z,12.57
2018-09-05T21:57:44.419Z,12.40
2018-09-05T22:00:47.385Z,11.87
2018-09-05T22:03:51.116Z,11.80
2018-09-05T22:06:53.443Z,15.20
2018-09-05T22:09:55.733Z,13.53
2018-09-05T22:12:58.135Z,12.50
2018-09-05T22:16:00.456Z,10.77
2018-09-05T22:19:02.844Z,12.97
2018-09-05T22:22:05.168Z,12.27
2018-09-05T22:25:07.661Z,15.20
2018-09-05T22:28:09.907Z,10.73
2018-09-05T22:31:12.186Z,13.27
2018-09-05T22:34:14.437Z,13.03
2018-09-05T22:37:16.756Z,12.07
2018-09-05T22:40:19.088Z,11.77
2018-09-05T22:43:34.300Z,11.10
2018-09-05T22:46:48.067Z,11.47
2018-09-05T22:50:12.391Z,13.20
2018-09-05T22:53:38.364Z,13.63
2018-09-05T22:56:59.246Z,15.20
2018-09-05T23:00:13.499Z,12.30
2018-09-05T23:03:32.779Z,13.50
2018-09-05T23:07:46.022Z,14.70
2018-09-05T23:10:59.829Z,15.40
2018-09-05T23:14:13.558Z,13.03
2018-09-05T23:17:27.332Z,12.77
2018-09-05T23:20:42.005Z,12.93
2018-09-05T23:23:51.337Z,12.20
2018-09-05T23:26:53.643Z,13.67
2018-09-05T23:29:55.938Z,13.33
2018-09-05T23:32:58.199Z,11.63
2018-09-05T23:36:01.219Z,11.87
2018-09-05T23:39:04.604Z,14.63
2018-09-05T23:42:07.066Z,11.33
2018-09-05T23:45:09.418Z,11.43
2018-09-05T23:48:11.683Z,13.47
2018-09-05T23:51:13.910Z,17.83
2018-09-05T23:54:16.235Z,11.97
2018-09-05T23:57:18.554Z,16.53
